Time;durP1;ratioP1;P1;durP2;ratioP2;P2;SDS_P1;SDS_P2;PMS_P1;PMS_P2;Temp;Humidity;BMP_temperature;BMP_pressure;BME280_temperature;BME280_humidity;BME280_pressure;Samples;Min_cycle;Max_cycle;Signal;HPM_P1;HPM_P2
2021/12/26 00:02:23;;;;;;;23.97;12.67;;;;;;;-9.54;83.67;100513.44;5012112;28;20046;-77
2021/12/26 00:04:49;;;;;;;27.67;13.97;;;;;;;-9.58;83.41;100520.00;5012309;28;20116;-78
2021/12/26 00:07:15;;;;;;;29.47;15.07;;;;;;;-9.60;83.55;100524.09;5012284;28;20193;-77
2021/12/26 00:09:40;;;;;;;22.17;13.40;;;;;;;-9.63;83.13;100518.78;5012148;28;20041;-77
2021/12/26 00:12:06;;;;;;;18.47;10.63;;;;;;;-9.65;83.67;100519.44;5012371;28;20042;-76
2021/12/26 00:14:31;;;;;;;24.63;12.17;;;;;;;-9.67;83.40;100523.53;5008301;28;20030;-77
2021/12/26 00:16:57;;;;;;;23.87;12.63;;;;;;;-9.67;83.22;100523.53;5011723;28;20030;-77
2021/12/26 00:19:22;;;;;;;25.90;12.40;;;;;;;-9.68;83.55;100521.78;5011742;28;20026;-77
2021/12/26 00:21:48;;;;;;;28.90;12.07;;;;;;;-9.73;83.00;100519.75;5012190;28;20041;-77
2021/12/26 00:24:13;;;;;;;21.43;11.53;;;;;;;-9.74;83.64;100525.66;5019081;28;20060;-77
2021/12/26 00:26:39;;;;;;;21.03;10.33;;;;;;;-9.76;82.89;100522.09;5015361;28;20042;-77
2021/12/26 00:29:04;;;;;;;19.63;10.50;;;;;;;-9.77;83.06;100520.31;5015478;28;20117;-76
2021/12/26 00:31:31;;;;;;;18.47;9.03;;;;;;;-9.80;83.27;100519.19;5014717;28;20073;-77
2021/12/26 00:33:57;;;;;;;19.53;9.47;;;;;;;-9.83;83.31;100524.94;5015763;28;20044;-77
2021/12/26 00:36:23;;;;;;;19.33;8.50;;;;;;;-9.84;83.03;100518.09;5013401;28;20044;-76
2021/12/26 00:38:48;;;;;;;20.27;9.80;;;;;;;-9.83;83.69;100522.41;5014569;28;20432;-76
2021/12/26 00:41:14;;;;;;;18.77;8.30;;;;;;;-9.82;82.84;100524.19;5013159;28;20030;-75
2021/12/26 00:43:40;;;;;;;17.13;8.43;;;;;;;-9.82;83.52;100519.09;5010374;28;20033;-76
2021/12/26 00:46:06;;;;;;;19.07;7.87;;;;;;;-9.81;83.01;100518.31;5014496;28;20556;-77
2021/12/26 00:48:32;;;;;;;16.57;8.23;;;;;;;-9.79;84.00;100516.75;5013400;28;20038;-76
2021/12/26 00:50:58;;;;;;;15.67;7.43;;;;;;;-9.79;82.97;100521.88;5013233;28;20091;-76
2021/12/26 00:53:24;;;;;;;15.40;6.93;;;;;;;-9.79;83.04;100528.66;5021585;28;20068;-76
2021/12/26 00:55:51;;;;;;;17.87;8.10;;;;;;;-9.78;83.63;100533.84;5014215;28;20033;-76
2021/12/26 00:58:17;;;;;;;13.93;6.93;;;;;;;-9.78;83.74;100538.06;5013013;28;20041;-75
2021/12/26 01:00:46;;;;;;;15.00;6.60;;;;;;;-9.79;83.51;100521.88;5012634;28;20492;-75
2021/12/26 01:03:13;;;;;;;17.43;7.50;;;;;;;-9.80;83.09;100529.41;5013068;28;20125;-76
2021/12/26 01:05:42;;;;;;;14.33;6.57;;;;;;;-9.81;83.15;100518.31;5021010;28;20045;-76
2021/12/26 01:08:10;;;;;;;15.10;7.10;;;;;;;-9.81;83.08;100523.41;5012898;28;20499;-76
2021/12/26 01:10:51;;;;;;;13.80;6.87;;;;;;;-9.78;83.93;100509.97;5012873;28;20579;-76
2021/12/26 01:13:29;;;;;;;14.57;6.77;;;;;;;-9.78;83.06;100507.44;5009430;28;20030;-75
2021/12/26 01:16:10;;;;;;;16.47;7.60;;;;;;;-9.77;84.06;100512.66;5012570;28;20026;-76
2021/12/26 01:18:39;;;;;;;15.03;6.93;;;;;;;-9.77;84.06;100515.22;5012785;28;20052;-76
2021/12/26 01:21:17;;;;;;;18.70;6.77;;;;;;;-9.75;84.00;100505.09;5021185;28;20021;-76
2021/12/26 01:23:53;;;;;;;14.57;7.10;;;;;;;-9.76;83.73;100511.88;5009285;28;20030;-76
2021/12/26 01:26:19;;;;;;;15.20;6.27;;;;;;;-9.75;83.91;100508.53;5013785;28;20115;-76
2021/12/26 01:28:45;;;;;;;17.77;7.67;;;;;;;-9.75;83.07;100520.41;5012438;28;20032;-76
2021/12/26 01:31:18;;;;;;;14.63;6.53;;;;;;;-9.77;83.09;100522.88;5012612;28;20030;-76
2021/12/26 01:33:48;;;;;;;13.27;6.25;;;;;;;-9.77;83.04;100510.09;5028208;28;20038;-76
2021/12/26 01:36:52;;;;;;;11.73;6.00;;;;;;;-9.76;83.05;100516.97;4971946;28;20035;-76
2021/12/26 01:39:42;;;;;;;14.10;6.60;;;;;;;-9.77;83.81;100515.22;4970137;28;20405;-76
2021/12/26 01:42:23;;;;;;;16.93;6.80;;;;;;;-9.78;83.61;100515.09;5002528;28;20581;-76
2021/12/26 01:45:02;;;;;;;19.43;8.10;;;;;;;-9.78;83.08;100513.41;5017006;28;20589;-77
2021/12/26 01:47:34;;;;;;;15.10;6.87;;;;;;;-9.78;83.30;100517.63;5019600;28;20053;-76
2021/12/26 01:49:59;;;;;;;15.97;7.07;;;;;;;-9.79;83.47;100510.78;5012118;28;20080;-76
2021/12/26 01:52:25;;;;;;;18.67;7.80;;;;;;;-9.88;82.67;100510.94;5012200;28;20038;-77
2021/12/26 01:55:00;;;;;;;16.07;7.23;;;;;;;-9.94;82.87;100513.94;5011904;28;20084;-76
2021/12/26 01:57:27;;;;;;;15.83;7.27;;;;;;;-9.96;83.12;100507.81;5009432;28;20037;-76
2021/12/26 01:59:52;;;;;;;16.07;6.33;;;;;;;-9.94;82.97;100507.94;5011864;28;20025;-76
2021/12/26 02:02:23;;;;;;;17.67;6.80;;;;;;;-9.92;83.57;100508.97;5020397;28;20030;-76
2021/12/26 02:04:50;;;;;;;17.20;6.97;;;;;;;-9.90;83.51;100509.97;5011650;28;20132;-76
2021/12/26 02:07:16;;;;;;;15.73;6.20;;;;;;;-9.91;83.32;100510.72;5011885;28;20117;-75
2021/12/26 02:09:44;;;;;;;14.97;6.13;;;;;;;-9.92;82.81;100511.53;5011862;28;20026;-75
2021/12/26 02:12:13;;;;;;;15.40;6.60;;;;;;;-9.94;82.88;100513.94;5011739;28;20034;-77
2021/12/26 02:14:39;;;;;;;14.80;6.43;;;;;;;-9.98;83.29;100501.75;5011110;28;20045;-76
2021/12/26 02:17:22;;;;;;;;;;;;;;;-9.99;83.09;100509.28;5013357;28;20041;-76
2021/12/26 02:19:50;;;;;;;16.63;7.40;;;;;;;-10.05;83.72;100503.72;5011592;28;19913;-76
2021/12/26 02:22:22;;;;;;;15.47;6.10;;;;;;;-10.05;83.29;100506.28;5011469;28;20038;-76
2021/12/26 02:27:31;;;;;;;17.30;6.90;;;;;;;-10.07;83.34;100513.81;5008343;28;20037;-76
2021/12/26 02:30:04;;;;;;;18.57;7.37;;;;;;;-10.05;83.03;100508.81;5011427;28;20058;-76
2021/12/26 02:32:30;;;;;;;17.08;6.07;;;;;;;-10.06;83.70;100510.50;5011412;28;20045;-76
2021/12/26 02:34:57;;;;;;;16.70;7.23;;;;;;;-10.07;83.17;100512.91;5011141;28;20148;-76
2021/12/26 02:37:22;;;;;;;16.90;7.80;;;;;;;-10.05;83.40;100509.72;5011159;28;20038;-76
2021/12/26 02:39:48;;;;;;;15.40;8.17;;;;;;;-10.01;84.08;100506.59;5011333;28;20710;-76
2021/12/26 02:42:17;;;;;;;17.93;7.73;;;;;;;-10.00;83.08;100505.84;5012295;28;20112;-76
2021/12/26 02:44:42;;;;;;;15.47;7.13;;;;;;;-10.01;83.81;100498.03;5015824;28;20066;-74
2021/12/26 02:47:08;;;;;;;17.30;7.93;;;;;;;-10.00;83.34;100499.84;5011666;28;20080;-76
2021/12/26 02:49:33;;;;;;;17.27;7.87;;;;;;;-10.00;83.70;100502.41;5012040;28;20092;-76
2021/12/26 02:51:58;;;;;;;17.50;7.27;;;;;;;-10.01;83.93;100496.38;5010914;28;20041;-76
2021/12/26 02:54:26;;;;;;;17.53;8.90;;;;;;;-10.00;83.74;100499.84;5011752;28;20045;-76
2021/12/26 02:56:52;;;;;;;17.03;8.83;;;;;;;-10.01;84.02;100503.16;5015128;28;20038;-77
2021/12/26 02:59:17;;;;;;;20.30;9.00;;;;;;;-10.01;83.36;100509.16;5024231;28;20037;-76
2021/12/26 03:01:43;;;;;;;19.23;8.70;;;;;;;-10.03;83.65;100513.28;5015246;28;20040;-76
2021/12/26 03:04:10;;;;;;;16.47;8.17;;;;;;;-10.06;83.78;100513.03;5010879;28;20026;-76
2021/12/26 03:06:53;;;;;;;22.73;9.90;;;;;;;-10.05;84.13;100516.47;5010569;28;20033;-75
2021/12/26 03:09:18;;;;;;;21.37;8.43;;;;;;;-10.05;83.82;100516.47;5010769;28;20065;-76
2021/12/26 03:11:46;;;;;;;21.20;9.10;;;;;;;-10.06;83.58;100515.59;5012000;28;20115;-76
2021/12/26 03:14:11;;;;;;;20.33;8.73;;;;;;;-10.05;84.40;100506.28;5010665;28;20040;-75
2021/12/26 03:16:36;;;;;;;21.97;8.30;;;;;;;-10.02;84.09;100512.47;5010415;28;20132;-75
2021/12/26 03:19:02;;;;;;;15.70;7.30;;;;;;;-10.02;83.67;100506.50;5010488;28;20041;-76
2021/12/26 03:21:28;;;;;;;16.30;7.43;;;;;;;-10.03;83.85;100504.69;5010641;28;20044;-76
2021/12/26 03:23:54;;;;;;;19.07;8.73;;;;;;;-10.04;83.71;100508.03;5010600;28;20034;-76
2021/12/26 03:26:19;;;;;;;18.77;8.83;;;;;;;-10.05;83.78;100504.59;5011632;28;20121;-75
2021/12/26 03:28:45;;;;;;;18.70;8.57;;;;;;;-10.06;83.71;100514.69;5011684;28;20540;-76
2021/12/26 03:31:10;;;;;;;16.40;7.53;;;;;;;-10.06;83.46;100502.84;5011526;28;20661;-76
2021/12/26 03:33:37;;;;;;;20.17;9.33;;;;;;;-10.08;83.22;100499.28;4990793;28;20129;-76
2021/12/26 03:36:03;;;;;;;17.53;8.50;;;;;;;-10.11;83.03;100505.78;5026306;28;20029;-76
2021/12/26 03:38:29;;;;;;;18.73;8.20;;;;;;;-10.18;83.20;100507.88;5010301;28;20430;-76
2021/12/26 03:41:29;;;;;;;18.03;8.23;;;;;;;-10.19;83.43;100506.13;5007668;28;20038;-76
2021/12/26 03:43:58;;;;;;;17.90;8.13;;;;;;;-10.20;83.19;100506.00;5010167;28;20032;-75
2021/12/26 03:46:23;;;;;;;18.97;8.63;;;;;;;-10.22;83.62;100507.53;5009971;28;20026;-76
2021/12/26 03:48:48;;;;;;;21.77;9.50;;;;;;;-10.25;82.91;100507.31;5011406;28;20072;-76
2021/12/26 03:51:15;;;;;;;23.77;8.43;;;;;;;-10.27;83.48;100499.56;5018690;28;20034;-76
2021/12/26 03:53:40;;;;;;;21.77;8.33;;;;;;;-10.29;82.88;100516.44;5010278;28;20030;-75
2021/12/26 03:56:06;;;;;;;18.87;8.13;;;;;;;-10.30;82.64;100514.63;5018327;28;20025;-76
2021/12/26 03:58:34;;;;;;;21.57;8.70;;;;;;;-10.32;83.54;100512.75;5010294;28;20037;-76
2021/12/26 04:00:59;;;;;;;18.27;9.03;;;;;;;-10.31;83.73;100512.00;5022546;28;20038;-76
2021/12/26 04:03:25;;;;;;;16.87;8.80;;;;;;;-10.27;83.83;100513.97;5014171;28;20034;-76
2021/12/26 04:06:01;;;;;;;17.40;8.30;;;;;;;-10.22;83.86;100521.19;5022342;28;20408;-76
2021/12/26 04:08:31;;;;;;;19.97;8.17;;;;;;;-10.20;84.31;100521.31;5013947;28;20033;-76
2021/12/26 04:10:57;;;;;;;18.30;8.67;;;;;;;-10.18;84.58;100514.66;5014108;28;20041;-76
2021/12/26 04:13:22;;;;;;;21.23;9.77;;;;;;;-10.16;84.24;100519.13;5013851;28;20048;-75
2021/12/26 04:15:48;;;;;;;16.23;8.00;;;;;;;-10.12;83.62;100511.69;5022143;28;20038;-76
2021/12/26 04:18:14;;;;;;;18.47;7.50;;;;;;;-10.13;83.83;100518.47;5013854;28;20029;-76
2021/12/26 04:20:40;;;;;;;17.50;8.53;;;;;;;-10.15;84.09;100512.34;5013909;28;20140;-76
2021/12/26 04:23:06;;;;;;;22.67;8.63;;;;;;;-10.16;83.63;100524.22;5013547;28;20030;-76
2021/12/26 04:25:31;;;;;;;18.37;8.37;;;;;;;-10.17;83.47;100517.31;5013626;28;20030;-76
2021/12/26 04:27:57;;;;;;;21.30;9.03;;;;;;;-10.19;84.04;100515.41;5014719;28;20034;-76
2021/12/26 04:30:23;;;;;;;17.47;7.97;;;;;;;-10.19;83.63;100523.06;5014965;28;20105;-76
2021/12/26 04:32:49;;;;;;;21.53;8.47;;;;;;;-10.19;84.26;100523.06;5013661;28;20049;-75
2021/12/26 04:35:16;;;;;;;20.73;8.40;;;;;;;-10.21;83.41;100522.97;5021793;28;20038;-76
2021/12/26 04:37:42;;;;;;;17.30;8.23;;;;;;;-10.22;83.75;100517.75;5013473;28;20550;-76
2021/12/26 04:40:10;;;;;;;16.63;8.63;;;;;;;-10.21;84.18;100520.44;5013544;28;20061;-76
2021/12/26 04:43:11;;;;;;;;;;;;;;;-10.21;83.79;100517.00;5013012;28;20030;-76
2021/12/26 04:45:43;;;;;;;17.70;7.90;;;;;;;-10.26;83.44;100516.63;5013207;28;19917;-76
2021/12/26 04:48:44;;;;;;;17.20;7.57;;;;;;;-10.28;83.54;100508.00;4991735;28;20054;-76
2021/12/26 04:51:11;;;;;;;19.57;8.20;;;;;;;-10.30;83.70;100499.34;5014131;28;20038;-75
2021/12/26 04:53:37;;;;;;;22.53;9.60;;;;;;;-10.30;84.02;100494.22;5013103;28;20034;-76
2021/12/26 04:56:03;;;;;;;19.63;9.50;;;;;;;-10.28;84.33;100502.00;5029115;28;20033;-76
2021/12/26 04:58:29;;;;;;;17.73;8.70;;;;;;;-10.31;84.11;100495.00;5021578;28;20128;-76
2021/12/26 05:00:55;;;;;;;21.03;8.50;;;;;;;-10.32;83.59;100490.69;5012727;28;20125;-76
2021/12/26 05:03:20;;;;;;;16.03;8.37;;;;;;;-10.35;83.59;100497.22;5014090;28;20084;-76
2021/12/26 05:05:45;;;;;;;20.27;8.67;;;;;;;-10.37;83.44;100499.66;5012513;28;20052;-74
2021/12/26 05:08:12;;;;;;;23.87;8.73;;;;;;;-10.39;84.01;100503.75;5014184;28;20049;-76
2021/12/26 05:10:37;;;;;;;18.73;8.03;;;;;;;-10.42;83.97;100499.31;5013629;28;20042;-76
2021/12/26 05:13:03;;;;;;;19.93;8.13;;;;;;;-10.45;83.80;100495.59;5014478;28;20091;-76
2021/12/26 05:15:30;;;;;;;19.33;8.73;;;;;;;-10.47;83.30;100492.06;5012545;28;20488;-75
2021/12/26 05:17:56;;;;;;;19.83;8.80;;;;;;;-10.49;83.56;100494.50;5014057;28;20044;-76
2021/12/26 05:20:23;;;;;;;16.80;8.40;;;;;;;-10.47;83.56;100499.72;5011630;28;20488;-76
2021/12/26 05:22:50;;;;;;;16.80;8.53;;;;;;;-10.47;83.57;100494.63;5008614;28;20033;-76
2021/12/26 05:25:15;;;;;;;23.37;9.07;;;;;;;-10.47;83.82;100497.19;5012498;28;20044;-76
2021/12/26 05:27:41;;;;;;;21.50;9.60;;;;;;;-10.48;83.43;100483.53;5016268;28;20030;-76
2021/12/26 05:30:12;;;;;;;20.60;8.90;;;;;;;-10.50;83.29;100484.19;5020997;28;20052;-76
2021/12/26 05:32:39;;;;;;;22.03;10.57;;;;;;;-10.53;83.04;100484.84;5012651;28;20069;-76
2021/12/26 05:35:06;;;;;;;19.33;8.27;;;;;;;-10.53;83.75;100486.47;5012323;28;20030;-76
2021/12/26 05:37:31;;;;;;;18.30;8.07;;;;;;;-10.54;83.16;100488.16;5012418;28;20049;-76
2021/12/26 05:39:57;;;;;;;20.07;8.63;;;;;;;-10.55;82.91;100493.16;5013688;28;20033;-76
2021/12/26 05:42:24;;;;;;;19.60;7.97;;;;;;;-10.57;83.08;100492.13;5012252;28;20038;-75
2021/12/26 05:44:50;;;;;;;19.10;9.10;;;;;;;-10.61;83.19;100496.09;5011967;28;20044;-76
2021/12/26 05:47:16;;;;;;;18.47;8.40;;;;;;;-10.64;82.80;100483.13;5012312;28;20033;-76
2021/12/26 05:49:51;;;;;;;17.77;7.57;;;;;;;-10.65;83.02;100491.56;5012506;28;20446;-76
2021/12/26 05:52:19;;;;;;;21.13;8.90;;;;;;;-10.76;83.13;100490.72;5012116;28;20034;-75
2021/12/26 05:54:49;;;;;;;19.07;8.67;;;;;;;-10.85;83.39;100484.91;5004006;28;20155;-76
2021/12/26 05:57:15;;;;;;;18.40;8.50;;;;;;;-10.85;82.79;100492.53;5012090;28;20531;-75
2021/12/26 05:59:42;;;;;;;17.10;7.43;;;;;;;-10.87;83.49;100494.09;5020293;28;20034;-76
2021/12/26 06:02:07;;;;;;;19.77;8.63;;;;;;;-10.89;83.33;100490.56;5012003;28;20041;-76
2021/12/26 06:04:35;;;;;;;18.27;7.90;;;;;;;-10.92;82.56;100496.28;5019753;28;20401;-76
2021/12/26 06:07:01;;;;;;;21.90;8.57;;;;;;;-10.93;82.74;100494.50;5011915;28;20030;-76
2021/12/26 06:09:28;;;;;;;17.83;8.23;;;;;;;-10.95;82.42;100490.03;5003821;28;20030;-76
2021/12/26 06:11:53;;;;;;;17.63;8.27;;;;;;;-11.00;82.42;100484.63;5011781;28;20096;-76
2021/12/26 06:14:19;;;;;;;17.80;8.10;;;;;;;-10.98;82.68;100492.38;5020199;28;20026;-75
2021/12/26 06:16:44;;;;;;;19.80;8.27;;;;;;;-11.00;82.94;100489.72;5011619;28;20036;-76
2021/12/26 06:19:26;;;;;;;19.00;7.33;;;;;;;-10.99;82.56;100495.69;5020088;28;20037;-76
2021/12/26 06:22:09;;;;;;;17.20;7.73;;;;;;;-11.00;82.75;100499.00;5008730;28;20053;-76
2021/12/26 06:24:58;;;;;;;20.60;7.70;;;;;;;-11.00;82.42;100493.91;5012552;28;20041;-76
2021/12/26 06:27:30;;;;;;;16.23;7.72;;;;;;;-11.02;82.78;100500.56;5011623;28;20034;-78
2021/12/26 06:30:15;;;;;;;18.67;8.90;;;;;;;-11.04;82.51;100491.09;5012683;28;20091;-77
2021/12/26 06:32:59;;;;;;;15.67;7.77;;;;;;;-11.07;81.98;100488.31;5009018;28;20053;-78
2021/12/26 06:35:43;;;;;;;20.30;8.43;;;;;;;-11.06;82.50;100479.91;5011518;28;20056;-77
2021/12/26 06:38:27;;;;;;;19.10;8.07;;;;;;;-11.04;82.87;100486.00;5009151;28;20099;-78
2021/12/26 06:41:12;;;;;;;21.27;9.53;;;;;;;-11.03;82.23;100494.53;5012664;28;20092;-77
2021/12/26 06:43:56;;;;;;;23.13;8.53;;;;;;;-11.01;82.25;100481.94;5009328;28;20049;-77
2021/12/26 06:46:57;;;;;;;19.33;8.63;;;;;;;-11.02;82.43;100486.16;4990524;28;20095;-78
2021/12/26 06:49:30;;;;;;;25.67;9.27;;;;;;;-11.02;82.31;100475.94;5004421;28;20515;-77
2021/12/26 06:51:55;;;;;;;17.77;8.53;;;;;;;-10.98;82.56;100477.94;5011206;28;20041;-78
2021/12/26 06:54:20;;;;;;;19.00;9.17;;;;;;;-10.93;83.09;100474.09;5012236;28;20041;-78
2021/12/26 06:56:46;;;;;;;26.43;9.30;;;;;;;-10.90;82.84;100481.09;5010973;28;20041;-77
2021/12/26 06:59:11;;;;;;;20.60;9.00;;;;;;;-10.88;83.23;100484.66;5012259;28;20088;-77
2021/12/26 07:01:37;;;;;;;20.80;8.73;;;;;;;-10.84;82.86;100490.13;5020204;28;20039;-77
2021/12/26 07:04:04;;;;;;;19.20;9.07;;;;;;;-10.80;82.67;100491.25;5010810;28;20518;-77
2021/12/26 07:06:30;;;;;;;24.37;9.93;;;;;;;-10.74;82.51;100499.38;5010779;28;20061;-77
2021/12/26 07:09:03;;;;;;;25.93;10.33;;;;;;;-10.69;83.19;100499.72;5015032;28;20033;-77
2021/12/26 07:11:28;;;;;;;23.30;9.23;;;;;;;-10.68;83.06;100499.84;5010819;28;20399;-77
2021/12/26 07:13:56;;;;;;;19.00;8.30;;;;;;;-10.63;82.38;100498.56;5010779;28;20064;-77
2021/12/26 07:16:22;;;;;;;18.63;8.83;;;;;;;-10.61;82.70;100507.22;5010504;28;20040;-77
2021/12/26 07:18:49;;;;;;;21.50;9.27;;;;;;;-10.54;82.80;100502.56;5010503;28;20064;-77
2021/12/26 07:21:18;;;;;;;18.20;8.70;;;;;;;-10.49;82.74;100511.47;5010718;28;20061;-77
2021/12/26 07:23:47;;;;;;;22.30;9.17;;;;;;;-10.44;82.32;100515.25;5010640;28;20026;-78
2021/12/26 07:26:17;;;;;;;20.97;9.83;;;;;;;-10.39;82.12;100513.97;5010400;28;20504;-77
2021/12/26 07:28:43;;;;;;;20.93;9.00;;;;;;;-10.36;82.16;100519.28;5018802;28;20036;-77
2021/12/26 07:31:13;;;;;;;19.07;8.37;;;;;;;-10.32;81.75;100513.66;5010468;28;20571;-77
2021/12/26 07:33:40;;;;;;;19.27;8.00;;;;;;;-10.29;81.91;100523.22;5010288;28;20242;-78
2021/12/26 07:36:06;;;;;;;19.83;8.87;;;;;;;-10.26;81.62;100529.41;5010215;28;20484;-77
2021/12/26 07:38:45;;;;;;;21.97;9.47;;;;;;;-10.24;81.73;100530.41;4995606;28;20034;-78
2021/12/26 07:41:10;;;;;;;23.03;9.33;;;;;;;-10.22;81.57;100528.84;5020142;28;20044;-78
2021/12/26 07:43:37;;;;;;;19.57;8.90;;;;;;;-10.19;81.11;100524.00;5003142;28;20092;-77
2021/12/26 07:46:27;;;;;;;19.63;9.40;;;;;;;-10.19;80.91;100521.44;5010166;28;20049;-78
2021/12/26 07:48:56;;;;;;;21.23;9.47;;;;;;;-10.18;81.09;100525.75;5010315;28;20053;-78
2021/12/26 07:51:40;;;;;;;20.60;8.80;;;;;;;-10.11;81.50;100526.22;5008946;28;20056;-78
2021/12/26 07:54:25;;;;;;;18.13;9.10;;;;;;;-10.01;80.70;100524.47;5011615;28;20185;-78
2021/12/26 07:57:22;;;;;;;18.43;8.17;;;;;;;-9.94;80.72;100525.81;5010895;28;20033;-78
2021/12/26 08:00:08;;;;;;;17.93;8.70;;;;;;;-9.86;80.65;100523.84;5009005;28;20156;-78
2021/12/26 08:02:52;;;;;;;19.70;8.50;;;;;;;-9.81;80.57;100528.53;5011410;28;20141;-78
2021/12/26 08:05:37;;;;;;;20.97;8.60;;;;;;;-9.74;80.33;100530.75;5019847;28;20046;-78
2021/12/26 08:08:15;;;;;;;17.63;8.50;;;;;;;-9.68;80.68;100519.22;4995394;28;20404;-77
2021/12/26 08:10:40;;;;;;;16.83;8.43;;;;;;;-9.64;80.18;100519.56;5015390;28;20041;-77
2021/12/26 08:13:05;;;;;;;17.63;8.70;;;;;;;-9.57;80.51;100519.22;5010048;28;20061;-78
2021/12/26 08:15:31;;;;;;;19.63;8.60;;;;;;;-9.53;80.65;100518.69;5011181;28;20042;-77
2021/12/26 08:17:56;;;;;;;18.63;9.20;;;;;;;-9.43;80.90;100522.81;5011249;28;20465;-78
2021/12/26 08:20:22;;;;;;;20.90;9.17;;;;;;;-9.36;80.46;100519.88;5011312;28;20041;-77
2021/12/26 08:22:47;;;;;;;18.50;9.30;;;;;;;-9.28;80.94;100523.00;5011359;28;20049;-77
2021/12/26 08:25:13;;;;;;;21.47;8.53;;;;;;;-9.21;80.58;100517.56;5011123;28;20034;-77
2021/12/26 08:27:38;;;;;;;17.07;8.77;;;;;;;-9.15;80.48;100514.56;5011347;28;20435;-78
2021/12/26 08:30:04;;;;;;;23.00;9.27;;;;;;;-9.09;80.60;100515.91;5011275;28;20472;-77
2021/12/26 08:32:32;;;;;;;16.40;7.83;;;;;;;-9.03;80.54;100515.44;5011232;28;20045;-79
2021/12/26 08:35:00;;;;;;;18.53;8.70;;;;;;;-8.95;79.82;100516.88;5010953;28;20065;-78
2021/12/26 08:37:27;;;;;;;14.60;7.43;;;;;;;-8.86;80.30;100517.50;5009560;28;20029;-78
2021/12/26 08:39:53;;;;;;;18.00;8.13;;;;;;;-8.78;80.04;100517.16;5010895;28;20042;-78
2021/12/26 08:42:18;;;;;;;21.40;9.80;;;;;;;-8.73;80.15;100513.25;5011084;28;20038;-78
2021/12/26 08:44:43;;;;;;;17.43;8.33;;;;;;;-8.66;79.29;100512.91;5009628;28;20084;-77
2021/12/26 08:47:10;;;;;;;15.97;8.63;;;;;;;-8.60;80.17;100511.66;5013357;28;20022;-77
2021/12/26 08:49:36;;;;;;;19.23;8.43;;;;;;;-8.54;79.33;100508.66;5013409;28;20080;-78
2021/12/26 08:52:03;;;;;;;17.37;8.70;;;;;;;-8.47;79.47;100505.72;5014728;28;20044;-77
2021/12/26 08:54:29;;;;;;;17.67;8.37;;;;;;;-8.41;79.20;100511.28;5018278;28;20046;-78
2021/12/26 08:56:55;;;;;;;17.37;8.37;;;;;;;-8.35;79.88;100517.56;5019709;28;20041;-78
2021/12/26 08:59:24;;;;;;;16.40;8.00;;;;;;;-8.30;79.51;100511.97;5015030;28;20064;-78
2021/12/26 09:01:49;;;;;;;17.50;8.53;;;;;;;-8.22;79.80;100517.63;5029828;28;20049;-78
2021/12/26 09:04:15;;;;;;;16.87;8.43;;;;;;;-8.17;79.84;100514.59;5014362;28;20034;-78
2021/12/26 09:06:40;;;;;;;17.27;7.80;;;;;;;-8.10;79.60;100512.44;5014269;28;20117;-78
2021/12/26 09:09:05;;;;;;;19.47;8.83;;;;;;;-8.01;80.07;100515.63;5012872;28;20045;-78
2021/12/26 09:11:31;;;;;;;16.07;8.10;;;;;;;-7.93;79.28;100514.47;5014348;28;20488;-78
2021/12/26 09:13:56;;;;;;;18.70;8.70;;;;;;;-7.85;79.40;100514.97;5013011;28;20515;-78
2021/12/26 09:16:22;;;;;;;18.77;8.23;;;;;;;-7.76;78.88;100516.47;5012739;28;20120;-78
2021/12/26 09:18:50;;;;;;;18.77;8.73;;;;;;;-7.67;79.47;100518.75;5013777;28;20560;-78
2021/12/26 09:21:15;;;;;;;16.97;7.33;;;;;;;-7.59;79.44;100517.59;5012013;28;20404;-78
2021/12/26 09:23:41;;;;;;;16.20;7.70;;;;;;;-7.52;79.06;100513.72;5013912;28;20042;-78
2021/12/26 09:26:06;;;;;;;19.27;7.00;;;;;;;-7.43;78.96;100510.91;5013837;28;20034;-78
2021/12/26 09:28:36;;;;;;;19.07;8.37;;;;;;;-7.35;79.49;100512.28;5013886;28;20047;-78
2021/12/26 09:31:02;;;;;;;16.37;7.60;;;;;;;-7.26;79.36;100518.00;5013899;28;20080;-78
2021/12/26 09:33:27;;;;;;;15.07;7.43;;;;;;;-7.18;79.13;100513.34;5013830;28;20069;-78
2021/12/26 09:35:52;;;;;;;16.70;7.43;;;;;;;-7.10;79.19;100517.28;5013542;28;20121;-78
2021/12/26 09:38:18;;;;;;;16.80;7.90;;;;;;;-7.01;78.37;100510.19;5013532;28;20113;-78
2021/12/26 09:40:43;;;;;;;15.87;6.97;;;;;;;-6.92;78.48;100512.44;5013760;28;20092;-78
2021/12/26 09:43:09;;;;;;;16.40;6.40;;;;;;;-6.85;78.73;100510.38;5012233;28;20052;-78
2021/12/26 09:45:34;;;;;;;15.90;7.20;;;;;;;-6.77;78.45;100503.16;5012148;28;20133;-77
2021/12/26 09:48:00;;;;;;;17.20;7.37;;;;;;;-6.69;78.90;100501.94;5013481;28;20042;-78
2021/12/26 09:50:25;;;;;;;17.60;7.27;;;;;;;-6.61;78.06;100500.72;5013503;28;20440;-78
2021/12/26 09:52:53;;;;;;;13.97;6.80;;;;;;;-6.52;77.82;100494.38;5013489;28;20048;-78
2021/12/26 09:55:19;;;;;;;13.43;6.77;;;;;;;-6.46;77.15;100487.97;5013221;28;20072;-78
2021/12/26 09:57:45;;;;;;;13.70;7.00;;;;;;;-6.37;78.12;100487.63;5013092;28;20125;-77
2021/12/26 10:00:24;;;;;;;16.40;7.20;;;;;;;-6.25;77.42;100483.22;5013292;28;20132;-77
2021/12/26 10:03:13;;;;;;;13.97;7.00;;;;;;;-6.17;77.41;100487.13;5012025;28;20124;-77
2021/12/26 10:06:06;;;;;;;17.77;8.27;;;;;;;-6.07;77.52;100480.00;5010913;28;20044;-78
2021/12/26 10:08:34;;;;;;;13.60;7.28;;;;;;;-5.99;77.92;100481.31;5017590;28;20169;-78
2021/12/26 10:11:08;;;;;;;16.63;8.53;;;;;;;-5.89;77.74;100465.63;5013272;28;20550;-78
2021/12/26 10:13:41;;;;;;;18.87;8.77;;;;;;;-5.79;76.67;100462.78;5013391;28;20392;-77
2021/12/26 10:16:07;;;;;;;18.83;8.97;;;;;;;-5.70;76.48;100464.13;5012813;28;20034;-78
2021/12/26 10:18:32;;;;;;;19.20;8.60;;;;;;;-5.61;77.15;100472.34;5012731;28;20110;-77
2021/12/26 10:20:58;;;;;;;17.43;7.77;;;;;;;-5.53;77.21;100466.84;5012898;28;20121;-78
2021/12/26 10:23:27;;;;;;;14.27;7.60;;;;;;;-5.40;76.58;100467.53;5012766;28;20556;-78
2021/12/26 10:25:52;;;;;;;15.33;6.93;;;;;;;-5.31;76.35;100473.22;5012598;28;20069;-78
2021/12/26 10:28:17;;;;;;;16.00;7.37;;;;;;;-5.21;76.70;100469.44;5012629;28;20070;-78
2021/12/26 10:30:44;;;;;;;14.77;7.00;;;;;;;-5.11;76.83;100462.34;5012843;28;20459;-79
2021/12/26 10:33:09;;;;;;;15.30;6.70;;;;;;;-5.00;76.59;100456.88;5012460;28;20392;-78
2021/12/26 10:35:35;;;;;;;15.63;7.50;;;;;;;-4.90;76.40;100442.03;5011159;28;20018;-78
2021/12/26 10:38:00;;;;;;;12.00;6.30;;;;;;;-4.82;75.65;100449.28;5007238;28;20077;-78
2021/12/26 10:40:31;;;;;;;12.63;6.63;;;;;;;-4.74;76.04;100445.41;5011314;28;20064;-78
2021/12/26 10:43:03;;;;;;;14.07;7.10;;;;;;;-4.66;76.51;100449.31;5015997;28;20030;-78
2021/12/26 10:45:34;;;;;;;12.80;6.23;;;;;;;-4.58;75.62;100435.16;5011077;28;20041;-78
2021/12/26 10:48:05;;;;;;;13.27;6.33;;;;;;;-4.50;75.30;100438.13;5009248;28;20446;-78
2021/12/26 10:50:34;;;;;;;11.13;5.57;;;;;;;-4.44;75.06;100434.16;5011221;28;20080;-77
2021/12/26 10:53:05;;;;;;;12.97;6.17;;;;;;;-4.35;75.05;100432.88;5011920;28;20045;-78
2021/12/26 10:55:30;;;;;;;12.40;5.73;;;;;;;-4.31;74.49;100430.53;5012076;28;20041;-78
2021/12/26 10:57:59;;;;;;;12.90;5.50;;;;;;;-4.26;74.07;100433.34;5012199;28;20450;-77
2021/12/26 11:00:28;;;;;;;12.00;5.20;;;;;;;-4.18;73.72;100432.94;5012278;28;20080;-78
2021/12/26 11:03:00;;;;;;;11.20;5.00;;;;;;;-4.07;74.17;100432.59;5012179;28;20041;-77
2021/12/26 11:05:30;;;;;;;12.57;6.05;;;;;;;-4.02;73.71;100429.44;5012047;28;20037;-78
2021/12/26 11:08:00;;;;;;;10.97;5.00;;;;;;;-3.94;73.74;100436.69;5011974;28;20069;-77
2021/12/26 11:10:47;;;;;;;10.13;4.57;;;;;;;-3.87;73.64;100423.31;5010428;28;20026;-77
2021/12/26 11:13:27;;;;;;;11.40;5.20;;;;;;;-3.81;74.16;100423.59;5009170;28;20030;-78
2021/12/26 11:16:00;;;;;;;9.67;4.77;;;;;;;-3.73;74.59;100422.28;5011750;28;20034;-77
2021/12/26 11:18:26;;;;;;;10.83;5.30;;;;;;;-3.65;74.12;100425.22;5010608;28;20045;-78
2021/12/26 11:20:55;;;;;;;11.20;5.50;;;;;;;-3.59;74.46;100421.28;5010670;28;20129;-78
2021/12/26 11:23:26;;;;;;;12.13;5.07;;;;;;;-3.49;74.07;100421.69;5011821;28;20030;-76
2021/12/26 11:25:55;;;;;;;10.07;5.40;;;;;;;-3.42;73.67;100418.59;5011681;28;20116;-77
2021/12/26 11:28:26;;;;;;;10.50;4.77;;;;;;;-3.33;73.64;100419.94;5018960;28;20037;-77